createdAt,value
2022-07-26T00:01:01.308Z,100264.84
2022-07-26T00:03:29.301Z,100259.53
2022-07-26T00:05:57.065Z,100269.50
2022-07-26T00:08:24.974Z,100267.59
2022-07-26T00:10:53.319Z,100266.75
2022-07-26T00:13:21.571Z,100263.88
2022-07-26T00:15:49.415Z,100261.59
2022-07-26T00:18:18.404Z,100253.91
2022-07-26T00:20:47.211Z,100256.34
2022-07-26T00:23:15.113Z,100256.22
2022-07-26T00:25:42.736Z,100255.97
2022-07-26T00:28:10.775Z,100249.72
2022-07-26T00:30:39.597Z,100250.56
2022-07-26T00:33:07.630Z,100250.09
2022-07-26T00:35:36.156Z,100246.59
2022-07-26T00:38:03.870Z,100240.72
2022-07-26T00:40:31.744Z,100248.63
2022-07-26T00:42:59.336Z,100240.97
2022-07-26T00:45:27.190Z,100239.84
2022-07-26T00:47:54.877Z,100229.19
2022-07-26T00:50:22.648Z,100232.53
2022-07-26T00:52:50.421Z,100233.06
2022-07-26T00:55:18.355Z,100232.81
2022-07-26T00:57:46.816Z,100230.41
2022-07-26T01:00:17.254Z,100228.03
2022-07-26T01:02:45.102Z,100234.38
2022-07-26T01:05:13.194Z,100230.28
2022-07-26T01:07:41.899Z,100243.25
2022-07-26T01:10:12.733Z,100228.75
2022-07-26T01:12:43.541Z,100234.13
2022-07-26T01:15:13.778Z,100229.09
2022-07-26T01:17:42.319Z,100226.81
2022-07-26T01:20:11.470Z,100222.63
2022-07-26T01:22:39.295Z,100212.22
2022-07-26T01:25:07.171Z,100220.97
2022-07-26T01:27:39.561Z,100224.56
2022-07-26T01:30:09.159Z,100218.19
2022-07-26T01:32:37.119Z,100220.38
2022-07-26T01:35:07.430Z,100215.84
2022-07-26T01:37:35.230Z,100219.56
2022-07-26T01:40:03.687Z,100212.34
2022-07-26T01:42:33.756Z,100207.56
2022-07-26T01:45:01.469Z,100217.25
2022-07-26T01:47:29.265Z,100206.47
2022-07-26T01:49:57.783Z,100210.00
2022-07-26T01:52:26.842Z,100218.31
2022-07-26T01:54:54.454Z,100213.41
2022-07-26T01:57:22.174Z,100221.34
2022-07-26T01:59:50.009Z,100216.53
2022-07-26T02:02:17.776Z,100218.81
2022-07-26T02:05:01.392Z,100215.00
2022-07-26T02:07:30.648Z,100220.38
2022-07-26T02:10:00.298Z,100216.66
2022-07-26T02:12:28.476Z,100221.19
2022-07-26T02:14:56.177Z,100220.38
2022-07-26T02:17:23.822Z,100216.66
2022-07-26T02:19:53.560Z,100214.13
2022-07-26T02:22:21.273Z,100217.00
2022-07-26T02:24:49.199Z,100224.88
2022-07-26T02:27:17.268Z,100212.31
2022-07-26T02:29:45.086Z,100219.03
2022-07-26T02:32:12.817Z,100224.88
2022-07-26T02:34:40.469Z,100221.41
2022-07-26T02:37:08.125Z,100229.53
2022-07-26T02:39:35.788Z,100231.38
2022-07-26T02:42:03.767Z,100229.69
2022-07-26T02:44:31.652Z,100240.47
2022-07-26T02:46:59.479Z,100240.59
2022-07-26T02:49:27.263Z,100239.75
2022-07-26T02:51:54.884Z,100241.41
2022-07-26T02:54:22.847Z,100249.22
2022-07-26T02:56:50.460Z,100247.56
2022-07-26T02:59:18.149Z,100254.84
2022-07-26T03:01:45.845Z,100264.75
2022-07-26T03:04:13.617Z,100264.34
2022-07-26T03:06:41.322Z,100254.97
2022-07-26T03:09:09.129Z,100267.09
2022-07-26T03:11:36.786Z,100261.69
2022-07-26T03:14:04.602Z,100258.81
2022-07-26T03:16:32.532Z,100255.44
2022-07-26T03:19:00.866Z,100252.44
2022-07-26T03:21:28.676Z,100259.16
2022-07-26T03:23:56.328Z,100253.19
2022-07-26T03:26:23.961Z,100256.78
2022-07-26T03:28:51.604Z,100261.56
2022-07-26T03:31:19.290Z,100263.00
2022-07-26T03:33:46.967Z,100267.81
2022-07-26T03:36:15.703Z,100278.34
2022-07-26T03:38:43.959Z,100278.47
2022-07-26T03:41:13.434Z,100279.34
2022-07-26T03:43:41.492Z,100284.59
2022-07-26T03:46:09.269Z,100289.16
2022-07-26T03:48:37.118Z,100296.63
2022-07-26T03:51:04.806Z,100317.16
2022-07-26T03:53:32.804Z,100318.53
2022-07-26T03:56:19.227Z,100317.00
2022-07-26T03:58:46.839Z,100323.75
2022-07-26T04:01:14.528Z,100318.66
2022-07-26T04:03:45.748Z,100316.16
2022-07-26T04:06:15.398Z,100325.28
2022-07-26T04:08:43.280Z,100318.88
2022-07-26T04:11:11.041Z,100318.88
2022-07-26T04:13:38.722Z,100315.28
2022-07-26T04:16:06.813Z,100305.38
2022-07-26T04:18:34.461Z,100311.69
2022-07-26T04:21:02.130Z,100310.88
2022-07-26T04:23:29.881Z,100313.97
2022-07-26T04:25:57.582Z,100320.00
2022-07-26T04:28:28.963Z,100318.28
2022-07-26T04:30:56.856Z,100320.91
2022-07-26T04:33:24.813Z,100314.84
2022-07-26T04:35:53.353Z,100315.91
2022-07-26T04:38:21.039Z,100311.75
2022-07-26T04:40:50.089Z,100310.31
2022-07-26T04:43:18.149Z,100305.50
2022-07-26T04:45:46.507Z,100303.59
2022-07-26T04:48:14.656Z,100296.75
2022-07-26T04:50:42.960Z,100309.19
2022-07-26T04:53:13.512Z,100317.63
2022-07-26T04:55:41.315Z,100314.84
2022-07-26T04:58:09.607Z,100317.88
2022-07-26T05:01:02.662Z,100315.34
2022-07-26T05:03:25.512Z,100319.78
2022-07-26T05:05:53.633Z,100324.09
2022-07-26T05:08:21.337Z,100326.56
2022-07-26T05:10:54.771Z,100329.13
2022-07-26T05:13:30.339Z,100313.03
2022-07-26T05:15:59.873Z,100320.31
2022-07-26T05:18:31.943Z,100316.31
2022-07-26T05:21:13.849Z,100317.19
2022-07-26T05:23:41.601Z,100311.06
2022-07-26T05:26:10.817Z,100312.50
2022-07-26T05:28:39.345Z,100303.81
2022-07-26T05:31:07.345Z,100308.38
2022-07-26T05:33:35.107Z,100310.19
2022-07-26T05:36:02.875Z,100307.47
2022-07-26T05:38:30.599Z,100301.66
2022-07-26T05:40:58.383Z,100304.53
2022-07-26T05:43:27.745Z,100300.41
2022-07-26T05:46:10.091Z,100300.91
2022-07-26T05:48:38.757Z,100301.06
2022-07-26T05:51:06.469Z,100301.47
2022-07-26T05:53:34.976Z,100298.19
2022-07-26T05:56:02.685Z,100302.34
2022-07-26T05:58:30.361Z,100295.19
2022-07-26T06:00:58.113Z,100301.69
2022-07-26T06:03:26.139Z,100295.66
2022-07-26T06:05:56.904Z,100301.47
2022-07-26T06:08:25.609Z,100297.38
2022-07-26T06:10:53.378Z,100301.03
2022-07-26T06:13:21.002Z,100297.44
2022-07-26T06:15:48.711Z,100292.47
2022-07-26T06:18:16.387Z,100287.75
2022-07-26T06:20:46.200Z,100299.06
2022-07-26T06:23:15.010Z,100301.81
2022-07-26T06:25:43.524Z,100300.78
2022-07-26T06:28:11.913Z,100294.63
2022-07-26T06:30:39.940Z,100299.84
2022-07-26T06:33:09.730Z,100289.28
2022-07-26T06:35:38.971Z,100286.03
2022-07-26T06:38:07.087Z,100287.13
2022-07-26T06:40:34.997Z,100287.69
2022-07-26T06:43:04.484Z,100293.28
2022-07-26T06:45:34.174Z,100295.25
2022-07-26T06:48:03.925Z,100290.53
2022-07-26T06:50:31.767Z,100293.03
2022-07-26T06:52:59.508Z,100284.09
2022-07-26T06:55:27.221Z,100288.84
2022-07-26T06:57:54.833Z,100290.25
2022-07-26T07:00:22.701Z,100295.25
2022-07-26T07:02:52.778Z,100294.97
2022-07-26T07:05:20.700Z,100285.75
2022-07-26T07:07:48.653Z,100286.63
2022-07-26T07:10:16.577Z,100280.78
2022-07-26T07:12:49.507Z,100286.59
2022-07-26T07:15:17.643Z,100296.59
2022-07-26T07:17:45.268Z,100277.94
2022-07-26T07:20:16.545Z,100277.34
2022-07-26T07:22:44.795Z,100273.53
2022-07-26T07:25:14.673Z,100273.19
2022-07-26T07:27:43.042Z,100269.00
2022-07-26T07:30:12.320Z,100269.69
2022-07-26T07:32:40.573Z,100280.81
2022-07-26T07:35:12.902Z,100275.47
2022-07-26T07:37:53.166Z,100277.72
2022-07-26T07:40:22.122Z,100276.47
2022-07-26T07:42:50.472Z,100279.22
2022-07-26T07:45:18.220Z,100274.75
2022-07-26T07:47:47.383Z,100276.38
2022-07-26T07:50:18.289Z,100283.69
2022-07-26T07:52:46.702Z,100276.69
2022-07-26T07:55:36.026Z,100270.81
2022-07-26T07:58:03.408Z,100278.22
2022-07-26T08:00:31.111Z,100272.44
2022-07-26T08:02:58.774Z,100275.47
2022-07-26T08:05:26.453Z,100267.66
2022-07-26T08:07:54.564Z,100262.56
2022-07-26T08:10:22.553Z,100251.25
2022-07-26T08:12:51.299Z,100245.34
2022-07-26T08:15:19.751Z,100251.22
2022-07-26T08:17:54.063Z,100266.59
2022-07-26T08:20:24.911Z,100255.34
2022-07-26T08:22:53.366Z,100255.09
2022-07-26T08:25:21.161Z,100256.34
2022-07-26T08:28:04.099Z,100253.78
2022-07-26T08:30:32.749Z,100256.22
2022-07-26T08:33:00.566Z,100260.06
2022-07-26T08:35:29.725Z,100273.22
2022-07-26T08:37:57.806Z,100273.09
2022-07-26T08:40:25.524Z,100278.63
2022-07-26T08:42:54.421Z,100262.31
2022-07-26T08:45:26.345Z,100258.34
2022-07-26T08:48:16.171Z,100248.66
2022-07-26T08:50:41.845Z,100244.09
2022-07-26T08:53:09.589Z,100259.41
2022-07-26T08:56:05.341Z,100262.66
2022-07-26T08:58:28.095Z,100261.97
2022-07-26T09:01:09.377Z,100262.34
2022-07-26T09:03:44.023Z,100248.44
2022-07-26T09:06:19.184Z,100243.41
2022-07-26T09:08:51.305Z,100242.28
2022-07-26T09:11:25.279Z,100257.03
2022-07-26T09:14:05.224Z,100256.75
2022-07-26T09:16:39.206Z,100255.75
2022-07-26T09:19:15.880Z,100247.44
2022-07-26T09:21:43.940Z,100248.13
2022-07-26T09:24:11.589Z,100298.41
2022-07-26T09:26:40.402Z,100280.16
2022-07-26T09:29:12.938Z,100293.31
2022-07-26T09:31:41.739Z,100293.31
2022-07-26T09:34:09.715Z,100288.78
2022-07-26T09:36:54.087Z,100298.53
2022-07-26T09:39:33.703Z,100305.44
2022-07-26T09:44:57.248Z,100304.44
2022-07-26T09:47:38.537Z,100302.19
2022-07-26T09:50:17.576Z,100316.38
2022-07-26T09:52:58.194Z,100327.22
2022-07-26T09:55:26.332Z,100318.69
2022-07-26T09:57:54.081Z,100310.31
2022-07-26T10:00:22.297Z,100301.22
2022-07-26T10:02:50.239Z,100293.63
2022-07-26T10:05:18.485Z,100276.06
2022-07-26T10:07:46.782Z,100279.56
2022-07-26T10:10:23.934Z,100286.88
2022-07-26T10:12:52.355Z,100282.72
2022-07-26T10:15:39.049Z,100288.25
2022-07-26T10:18:08.572Z,100289.03
2022-07-26T10:20:42.805Z,100281.81
2022-07-26T10:23:36.583Z,100283.84
2022-07-26T10:26:05.901Z,100296.38
2022-07-26T10:28:35.886Z,100298.97
2022-07-26T10:31:30.540Z,100300.31
2022-07-26T10:34:00.665Z,100300.59
2022-07-26T10:36:38.956Z,100306.75
2022-07-26T10:39:14.753Z,100334.31
2022-07-26T10:41:47.723Z,100352.41
2022-07-26T10:44:22.860Z,100367.53
2022-07-26T10:47:09.111Z,100374.47
2022-07-26T10:49:44.328Z,100378.56
2022-07-26T10:52:13.198Z,100374.53
2022-07-26T10:54:57.055Z,100370.31
2022-07-26T10:57:44.163Z,100370.47
2022-07-26T11:00:26.108Z,100351.94
2022-07-26T11:02:57.717Z,100346.03
2022-07-26T11:05:31.262Z,100336.88
2022-07-26T11:08:06.382Z,100329.59
2022-07-26T11:10:41.941Z,100314.66
2022-07-26T11:13:15.679Z,100313.31
2022-07-26T11:16:01.796Z,100316.09
2022-07-26T11:18:32.872Z,100316.03
2022-07-26T11:21:17.712Z,100321.31
2022-07-26T11:23:46.066Z,100304.13
2022-07-26T11:26:20.171Z,100308.63
2022-07-26T11:28:53.632Z,100295.84
2022-07-26T11:31:49.412Z,100301.44
2022-07-26T11:34:20.831Z,100296.16
2022-07-26T11:36:48.846Z,100296.66
2022-07-26T11:39:21.561Z,100304.06
2022-07-26T11:41:49.701Z,100294.84
2022-07-26T11:44:21.449Z,100302.78
2022-07-26T11:46:49.619Z,100292.00
2022-07-26T11:49:41.410Z,100283.88
2022-07-26T11:52:12.313Z,100264.66
2022-07-26T11:54:48.785Z,100260.69
2022-07-26T11:57:18.070Z,100253.97
2022-07-26T11:59:47.599Z,100266.94
2022-07-26T12:02:16.220Z,100259.66
2022-07-26T12:04:44.865Z,100271.66
2022-07-26T12:07:14.251Z,100261.88
2022-07-26T12:09:47.076Z,100252.34
2022-07-26T12:12:20.999Z,100250.75
2022-07-26T12:15:01.988Z,100245.09
2022-07-26T12:17:35.285Z,100248.13
2022-07-26T12:20:14.013Z,100256.22
2022-07-26T12:22:57.645Z,100262.59
2022-07-26T12:25:26.553Z,100256.25
2022-07-26T12:27:56.357Z,100257.69
2022-07-26T12:30:24.405Z,100258.22
2022-07-26T12:32:54.596Z,100247.25
2022-07-26T12:35:32.361Z,100258.03
2022-07-26T12:38:00.201Z,100249.88
2022-07-26T12:40:29.163Z,100259.69
2022-07-26T12:43:02.743Z,100263.75
2022-07-26T12:45:33.287Z,100262.84
2022-07-26T12:48:03.050Z,100265.25
2022-07-26T12:50:32.976Z,100273.69
2022-07-26T12:53:05.391Z,100276.13
2022-07-26T12:55:34.762Z,100269.84
2022-07-26T12:58:02.962Z,100265.50
2022-07-26T13:00:30.837Z,100252.56
2022-07-26T13:02:59.436Z,100256.38
2022-07-26T13:05:27.553Z,100239.03
2022-07-26T13:07:55.780Z,100246.78
2022-07-26T13:10:33.481Z,100252.50
2022-07-26T13:13:02.249Z,100255.97
2022-07-26T13:15:35.981Z,100244.59
2022-07-26T13:18:07.317Z,100249.28
2022-07-26T13:20:39.181Z,100240.28
2022-07-26T13:23:12.624Z,100246.94
2022-07-26T13:25:41.642Z,100238.94
2022-07-26T13:28:11.049Z,100240.41
2022-07-26T13:30:41.304Z,100235.78
2022-07-26T13:33:09.241Z,100232.88
2022-07-26T13:35:41.107Z,100230.84
2022-07-26T13:38:09.302Z,100233.53
2022-07-26T13:40:37.166Z,100236.94
2022-07-26T13:43:04.925Z,100243.16
2022-07-26T13:45:32.809Z,100240.09
2022-07-26T13:48:00.477Z,100237.50
2022-07-26T13:50:28.372Z,100238.06
2022-07-26T13:52:56.541Z,100235.13
2022-07-26T13:55:25.017Z,100235.84
2022-07-26T13:57:56.610Z,100231.41
2022-07-26T14:00:26.450Z,100233.06
2022-07-26T14:02:55.053Z,100237.75
2022-07-26T14:05:23.657Z,100230.56
2022-07-26T14:07:51.402Z,100237.34
2022-07-26T14:10:21.121Z,100239.22
2022-07-26T14:12:54.983Z,100242.91
2022-07-26T14:15:23.655Z,100232.50
2022-07-26T14:18:00.032Z,100228.28
2022-07-26T14:20:30.837Z,100207.88
2022-07-26T14:22:58.819Z,100218.16
2022-07-26T14:25:27.128Z,100226.69
2022-07-26T14:27:55.100Z,100220.16
2022-07-26T14:30:23.094Z,100214.13
2022-07-26T14:32:51.080Z,100219.28
2022-07-26T14:35:19.642Z,100220.09
2022-07-26T14:37:47.390Z,100223.97
2022-07-26T14:40:16.264Z,100216.66
2022-07-26T14:42:44.362Z,100228.50
2022-07-26T14:45:13.734Z,100218.50
2022-07-26T14:47:41.649Z,100225.31
2022-07-26T14:50:10.334Z,100223.47
2022-07-26T14:52:45.094Z,100212.41
2022-07-26T14:55:12.853Z,100205.44
2022-07-26T14:57:40.883Z,100217.03
2022-07-26T15:00:10.610Z,100215.94
2022-07-26T15:02:40.080Z,100222.25
2022-07-26T15:05:08.342Z,100213.72
2022-07-26T15:07:35.982Z,100217.50
2022-07-26T15:10:04.433Z,100212.59
2022-07-26T15:12:33.400Z,100228.69
2022-07-26T15:15:01.313Z,100231.09
2022-07-26T15:17:29.193Z,100229.88
2022-07-26T15:19:56.943Z,100233.34
2022-07-26T15:22:25.667Z,100228.81
2022-07-26T15:24:54.673Z,100233.13
2022-07-26T15:27:22.291Z,100230.22
2022-07-26T15:29:51.054Z,100233.91
2022-07-26T15:32:20.775Z,100223.31
2022-07-26T15:34:49.281Z,100220.22
2022-07-26T15:37:17.722Z,100216.69
2022-07-26T15:39:45.480Z,100220.66
2022-07-26T15:42:15.247Z,100225.69
2022-07-26T15:44:43.041Z,100222.81
2022-07-26T15:47:11.721Z,100212.09
2022-07-26T15:49:40.230Z,100222.84
2022-07-26T15:52:10.105Z,100220.03
2022-07-26T15:54:38.335Z,100210.78
2022-07-26T15:57:06.414Z,100211.38
2022-07-26T15:59:36.110Z,100212.38
2022-07-26T16:02:05.773Z,100204.59
2022-07-26T16:04:33.639Z,100199.16
2022-07-26T16:07:02.122Z,100218.34
2022-07-26T16:09:30.282Z,100220.25
2022-07-26T16:12:00.524Z,100217.66
2022-07-26T16:14:32.511Z,100222.56
2022-07-26T16:17:02.051Z,100229.03
2022-07-26T16:19:29.805Z,100226.53
2022-07-26T16:21:57.462Z,100227.94
2022-07-26T16:24:25.791Z,100224.72
2022-07-26T16:26:53.688Z,100228.25
2022-07-26T16:29:21.998Z,100235.09
2022-07-26T16:31:51.133Z,100236.56
2022-07-26T16:34:18.806Z,100229.66
2022-07-26T16:36:46.447Z,100234.63
2022-07-26T16:39:14.732Z,100241.28
2022-07-26T16:41:42.824Z,100242.72
2022-07-26T16:44:13.360Z,100241.78
2022-07-26T16:46:41.188Z,100232.97
2022-07-26T16:49:13.778Z,100239.31
2022-07-26T16:51:41.877Z,100242.53
2022-07-26T16:54:09.823Z,100242.72
2022-07-26T16:56:37.556Z,100239.47
2022-07-26T16:59:10.012Z,100233.97
2022-07-26T17:01:38.256Z,100245.41
2022-07-26T17:04:05.907Z,100251.53
2022-07-26T17:06:33.795Z,100249.59
2022-07-26T17:09:01.461Z,100252.97
2022-07-26T17:11:29.071Z,100250.31
2022-07-26T17:13:57.998Z,100252.53
2022-07-26T17:16:25.863Z,100260.22
2022-07-26T17:18:55.870Z,100260.06
2022-07-26T17:21:23.638Z,100258.22
2022-07-26T17:23:51.550Z,100262.94
2022-07-26T17:26:20.036Z,100264.09
2022-07-26T17:28:47.878Z,100273.78
2022-07-26T17:31:15.587Z,100278.50
2022-07-26T17:33:43.386Z,100278.69
2022-07-26T17:36:27.978Z,100285.47
2022-07-26T17:38:56.071Z,100285.91
2022-07-26T17:41:24.346Z,100285.78
2022-07-26T17:44:03.176Z,100294.78
2022-07-26T17:46:34.288Z,100284.34
2022-07-26T17:49:03.673Z,100283.47
2022-07-26T17:51:33.357Z,100282.19
2022-07-26T17:54:01.096Z,100284.22
2022-07-26T17:56:29.224Z,100301.94
2022-07-26T17:58:58.095Z,100302.38
2022-07-26T18:01:25.869Z,100298.94
2022-07-26T18:03:57.652Z,100300.22
2022-07-26T18:06:25.981Z,100297.28
2022-07-26T18:08:54.447Z,100291.38
2022-07-26T18:11:22.109Z,100300.59
2022-07-26T18:13:49.798Z,100299.59
2022-07-26T18:16:17.534Z,100308.03
2022-07-26T18:18:45.268Z,100297.81
2022-07-26T18:21:13.706Z,100289.34
2022-07-26T18:24:00.313Z,100290.88
2022-07-26T18:26:30.990Z,100272.44
2022-07-26T18:28:59.330Z,100276.47
2022-07-26T18:31:27.413Z,100279.78
2022-07-26T18:33:55.593Z,100274.59
2022-07-26T18:36:23.444Z,100280.78
2022-07-26T18:38:51.273Z,100278.59
2022-07-26T18:41:20.351Z,100273.44
2022-07-26T18:43:48.542Z,100280.44
2022-07-26T18:46:16.261Z,100279.44
2022-07-26T18:48:44.116Z,100281.44
2022-07-26T18:51:12.494Z,100275.56
2022-07-26T18:53:40.992Z,100273.56
2022-07-26T18:56:09.037Z,100270.53
2022-07-26T18:58:37.848Z,100256.63
2022-07-26T19:01:06.595Z,100266.00
2022-07-26T19:03:35.008Z,100261.72
2022-07-26T19:06:02.990Z,100266.31
2022-07-26T19:08:31.763Z,100257.69
2022-07-26T19:10:59.587Z,100260.59
2022-07-26T19:13:27.393Z,100262.25
2022-07-26T19:15:55.113Z,100257.63
2022-07-26T19:18:24.814Z,100269.41
2022-07-26T19:20:52.835Z,100274.03
2022-07-26T19:23:20.761Z,100271.97
2022-07-26T19:25:48.413Z,100283.69
2022-07-26T19:28:16.028Z,100279.34
2022-07-26T19:30:45.167Z,100302.13
2022-07-26T19:33:12.885Z,100288.91
2022-07-26T19:35:40.543Z,100293.34
2022-07-26T19:38:09.698Z,100290.19
2022-07-26T19:40:37.426Z,100293.03
2022-07-26T19:43:05.149Z,100294.47
2022-07-26T19:45:33.109Z,100301.06
2022-07-26T19:48:00.788Z,100299.63
2022-07-26T19:50:28.518Z,100306.31
2022-07-26T19:52:56.275Z,100301.06
2022-07-26T19:55:23.956Z,100308.59
2022-07-26T19:57:51.550Z,100313.81
2022-07-26T20:00:20.886Z,100308.50
2022-07-26T20:02:48.611Z,100322.59
2022-07-26T20:05:17.845Z,100315.63
2022-07-26T20:07:50.122Z,100312.63
2022-07-26T20:10:17.830Z,100307.34
2022-07-26T20:12:46.806Z,100308.41
2022-07-26T20:15:17.183Z,100304.50
2022-07-26T20:17:44.867Z,100313.63
2022-07-26T20:20:13.281Z,100302.22
2022-07-26T20:22:41.744Z,100306.41
2022-07-26T20:25:09.721Z,100312.69
2022-07-26T20:27:37.603Z,100309.56
2022-07-26T20:30:06.676Z,100316.44
2022-07-26T20:32:34.649Z,100314.78
2022-07-26T20:35:03.950Z,100317.44
2022-07-26T20:37:32.031Z,100319.41
2022-07-26T20:39:59.885Z,100324.41
2022-07-26T20:42:27.818Z,100325.16
2022-07-26T20:44:55.711Z,100320.97
2022-07-26T20:47:23.416Z,100318.41
2022-07-26T20:49:51.236Z,100305.63
2022-07-26T20:52:19.153Z,100305.75
2022-07-26T20:54:46.973Z,100309.00
2022-07-26T20:57:14.794Z,100301.81
2022-07-26T20:59:43.091Z,100305.91
2022-07-26T21:02:11.186Z,100303.34
2022-07-26T21:04:40.339Z,100297.69
2022-07-26T21:07:08.212Z,100295.47
2022-07-26T21:09:36.709Z,100288.13
2022-07-26T21:12:04.787Z,100295.56
2022-07-26T21:14:32.485Z,100298.22
2022-07-26T21:17:00.547Z,100295.72
2022-07-26T21:19:28.306Z,100282.16
2022-07-26T21:21:57.192Z,100283.63
2022-07-26T21:24:25.009Z,100290.09
2022-07-26T21:26:55.271Z,100294.66
2022-07-26T21:29:22.990Z,100293.00
2022-07-26T21:31:50.642Z,100290.72
2022-07-26T21:34:19.257Z,100284.25
2022-07-26T21:36:47.042Z,100298.03
2022-07-26T21:39:14.921Z,100307.50
2022-07-26T21:41:42.656Z,100297.06
2022-07-26T21:44:10.925Z,100300.81
2022-07-26T21:46:38.824Z,100305.47
2022-07-26T21:49:06.571Z,100304.75
2022-07-26T21:51:34.697Z,100312.41
2022-07-26T21:54:02.334Z,100309.22
2022-07-26T21:56:30.617Z,100312.09
2022-07-26T21:59:00.137Z,100314.25
2022-07-26T22:01:27.802Z,100308.72
2022-07-26T22:03:55.928Z,100314.25
2022-07-26T22:06:23.596Z,100319.75
2022-07-26T22:08:52.035Z,100308.50
2022-07-26T22:11:19.722Z,100313.63
2022-07-26T22:13:47.529Z,100311.13
2022-07-26T22:16:15.654Z,100304.88
2022-07-26T22:18:43.676Z,100307.28
2022-07-26T22:21:11.397Z,100310.53
2022-07-26T22:23:39.202Z,100317.34
2022-07-26T22:26:06.797Z,100310.03
2022-07-26T22:28:34.918Z,100322.34
2022-07-26T22:31:02.686Z,100324.91
2022-07-26T22:33:30.309Z,100320.81
2022-07-26T22:35:59.229Z,100315.31
2022-07-26T22:38:26.834Z,100323.81
2022-07-26T22:40:54.569Z,100319.94
2022-07-26T22:43:22.277Z,100317.41
2022-07-26T22:45:50.010Z,100309.59
2022-07-26T22:48:18.130Z,100318.25
2022-07-26T22:50:46.041Z,100310.72
2022-07-26T22:53:15.331Z,100307.34
2022-07-26T22:55:43.054Z,100313.47
2022-07-26T22:58:10.661Z,100312.03
2022-07-26T23:00:38.494Z,100308.66
2022-07-26T23:03:10.336Z,100306.28
2022-07-26T23:05:45.715Z,100308.28
2022-07-26T23:11:03.581Z,100312.88
2022-07-26T23:13:31.531Z,100318.38
2022-07-26T23:16:04.123Z,100306.97
2022-07-26T23:18:35.001Z,100317.78
2022-07-26T23:21:03.829Z,100316.69
2022-07-26T23:23:32.170Z,100310.97
2022-07-26T23:25:59.957Z,100309.13
2022-07-26T23:28:36.904Z,100310.59
2022-07-26T23:31:07.849Z,100307.34
2022-07-26T23:33:52.702Z,100305.66
2022-07-26T23:36:23.440Z,100314.41
2022-07-26T23:38:51.097Z,100314.19
2022-07-26T23:41:19.487Z,100314.41
2022-07-26T23:43:47.413Z,100287.31
2022-07-26T23:46:15.579Z,100291.03
2022-07-26T23:48:43.392Z,100292.72
2022-07-26T23:51:11.176Z,100292.59
2022-07-26T23:53:38.953Z,100299.19
2022-07-26T23:56:06.696Z,100298.34
2022-07-26T23:58:35.188Z,100295.72
